Daniel Field
KDNL : now visible

Airfield :











YOU CAN JOIN US ON...

 
LOGIN :

Register | Disclaimer

   EN    FR    IT 

 









Legend :    VFR   Marginal VFR   IFR   Intensive IFR   Very Intensive IFR
Visi :
Ceiling :
>= 8 km
>= 3000ft
5 to 8 km
1000 to 3000 ft
1500m to 5 km
500 to 1000 ft
800 to 1500m
200 to 500 ft
< 800m
< 200 ft
Symbols :   Thunderstorms  Fog  Heavy snow  Heavy precipitations  Wind > 20 kt






- Airport Elevation : 423 ft


KDNL - Daniel Field

CURRENT METAR :
  • 031353Z AUTO 05005KT 10SM SCT015 29/23 A3001 RMK AO2 SLP155 T02890233

EXPIRED METARs :
  • 031253Z AUTO 08004KT 10SM CLR 27/23 A3001 RMK AO2 SLP156 T02670233
  • 031153Z AUTO 05004KT 8SM FEW007 26/23 A3000 RMK AO2 SLP154 T02560233 10261 20250 53006

TAF KDNL
Valid from the 03 at 15:00 until the 04 at 12:00 UTC


031443Z 0315/0412 05010KT P6SM VCSH SCT012 BKN035
FM040300 01005KT P6SM BKN050 BKN200
KZTL FIR / North America



MET'MAP, your aeronautical weather chart ! - Copyright ORBIFLY December 2007 - Disclaimer

ORBIFLY MET'MAP TEAM :

Programming & Development : Alexandra Zaïnal
Concept & original design : Baudouin d'Aumeries
Assistance for programming : Marc-Olivier Méhu
Technical & hardware support : Manuel Goepfert

Contact : metmap@orbifly.com




SOURCES & CREDITS :

   NOAA       Earth
Advisory